»·PEaware :: N101JP KSAN-KCMA

N101JP :: KSAN-KCMA

FLIGHT INFORMATION

Flight Status: Arrived
Operator: Privately registered:
United States
More flights under this callsign
Pilot: James T. (870)
Aircraft: BEECH AIRCRAFT SUPER KING AIR COMMUTER
(BE20)
More flights by this aircraft type
Origin: KSAN San Diego Intl-Lindbergh
United States
Destination: KCMA Camarillo
United States
More flights between these airports :: More routes between these airports
Route: +PEBLE6 SXC V208 VTU
File this flight plan on PilotEdge
Remarks: rolling own wx
Altitude:
(Current/Filed)
80ft
Speed:
(Current/Filed)
220kts
Departed: 20-Feb-19 03:13 PM
Arrived: 20-Feb-19 04:02 PM
Distance/Time
Traveled:
130nm/0:49
Distance/Time
To Go:
Arrived

Flight Plot

Page will automatically refresh every two minutes.

Flight plan parsing failed; only flown route is shown


Map Options




Map Legend


Flown Route
Filed Route
Departure Airport
Arrival Airport
Navaid (VOR, NDB)
Fix

Horizontal Profiles

Position Reports

Time Latitude Longitude Heading Altitude Ground
Speed
20-Feb-19 14:42 32.732035 -117.176947 80 21ft 0kts
20-Feb-19 14:43 32.732035 -117.176947 80 21ft 0kts
20-Feb-19 14:44 32.732035 -117.176947 80 21ft 0kts
20-Feb-19 14:45 32.732035 -117.176947 80 21ft 0kts
20-Feb-19 14:46 32.732035 -117.176947 80 21ft 0kts
20-Feb-19 14:55 32.732035 -117.176947 80 21ft 0kts
20-Feb-19 14:56 32.732035 -117.176947 80 21ft 0kts
20-Feb-19 14:57 32.732035 -117.176947 80 21ft 0kts
20-Feb-19 14:57 32.732035 -117.176947 80 21ft 0kts
20-Feb-19 14:59 32.732035 -117.176947 80 21ft 0kts
20-Feb-19 15:00 32.732035 -117.176947 80 21ft 0kts
20-Feb-19 15:01 32.732035 -117.176947 80 21ft 0kts
20-Feb-19 15:01 32.732035 -117.176947 80 21ft 0kts
20-Feb-19 15:02 32.732035 -117.176947 80 21ft 0kts
20-Feb-19 15:04 32.732035 -117.176947 80 21ft 0kts
20-Feb-19 15:04 32.732035 -117.176947 80 21ft 0kts
20-Feb-19 15:05 32.732035 -117.176947 80 21ft 0kts
20-Feb-19 15:06 32.732035 -117.176947 80 21ft 0kts
20-Feb-19 15:07 32.731857 -117.176543 134 21ft 3kts
20-Feb-19 15:08 32.731158 -117.175745 136 21ft 2kts
20-Feb-19 15:09 32.731044 -117.175616 136 21ft 0kts
20-Feb-19 15:10 32.731028 -117.175598 136 21ft 0kts
20-Feb-19 15:11 32.730392 -117.175090 170 21ft 7kts
20-Feb-19 15:12 32.730919 -117.178678 285 21ft 88kts
20-Feb-19 15:13 32.749117 -117.222800 305 1301ft 175kts
20-Feb-19 15:14 32.777879 -117.270572 306 3283ft 180kts
20-Feb-19 15:15 32.806784 -117.318705 306 5200ft 179kts
20-Feb-19 15:16 32.835362 -117.365819 305 6995ft 179kts
20-Feb-19 15:17 32.865143 -117.414228 306 7999ft 188kts
20-Feb-19 15:18 32.898473 -117.465855 324 7997ft 208kts
20-Feb-19 15:19 32.950054 -117.500615 331 8001ft 218kts
20-Feb-19 15:20 32.994195 -117.549097 308 8000ft 218kts
20-Feb-19 15:21 33.030860 -117.605878 307 8000ft 217kts
20-Feb-19 15:22 33.067918 -117.662823 307 8000ft 217kts
20-Feb-19 15:23 33.105241 -117.719052 307 7999ft 217kts
20-Feb-19 15:24 33.142529 -117.775296 307 7999ft 217kts
20-Feb-19 15:25 33.179834 -117.832007 305 7998ft 217kts
20-Feb-19 15:26 33.202959 -117.897591 290 7997ft 213kts
20-Feb-19 15:27 33.224115 -117.961398 291 7998ft 202kts
20-Feb-19 15:28 33.244575 -118.023235 291 7999ft 199kts
20-Feb-19 15:29 33.264830 -118.084373 291 8000ft 199kts
20-Feb-19 15:30 33.285224 -118.145909 291 8000ft 200kts
20-Feb-19 15:31 33.303062 -118.200098 291 7999ft 201kts
20-Feb-19 15:32 33.323599 -118.262106 291 7999ft 201kts
20-Feb-19 15:33 33.343875 -118.323955 291 7999ft 201kts
20-Feb-19 15:34 33.364130 -118.385737 291 8000ft 201kts
20-Feb-19 15:35 33.391500 -118.442751 310 8000ft 201kts
20-Feb-19 15:36 33.427290 -118.493619 310 7999ft 202kts
20-Feb-19 15:37 33.463218 -118.544619 309 7999ft 202kts
20-Feb-19 15:38 33.499179 -118.596059 309 8000ft 202kts
20-Feb-19 15:39 33.534875 -118.647253 309 7999ft 202kts
20-Feb-19 15:40 33.570944 -118.698389 309 8000ft 202kts
20-Feb-19 15:41 33.606809 -118.749616 309 8000ft 202kts
20-Feb-19 15:42 33.642933 -118.801305 309 8000ft 202kts
20-Feb-19 15:43 33.678666 -118.852952 309 7999ft 202kts
20-Feb-19 15:44 33.727765 -118.859343 18 7672ft 199kts
20-Feb-19 15:45 33.780303 -118.841083 14 7203ft 196kts
20-Feb-19 15:46 33.832785 -118.825373 13 6699ft 197kts
20-Feb-19 15:47 33.886354 -118.809517 13 5938ft 200kts
20-Feb-19 15:48 33.940138 -118.793514 13 5210ft 201kts
20-Feb-19 15:49 33.993224 -118.777904 13 4995ft 188kts
20-Feb-19 15:50 34.040357 -118.765641 350 4998ft 164kts
20-Feb-19 15:51 34.082773 -118.780244 343 5000ft 160kts
20-Feb-19 15:52 34.125849 -118.792315 354 4729ft 166kts
20-Feb-19 15:53 34.173075 -118.797330 355 4010ft 170kts
20-Feb-19 15:54 34.216457 -118.802105 351 3978ft 151kts
20-Feb-19 15:55 34.227636 -118.850707 266 3312ft 172kts
20-Feb-19 15:56 34.224326 -118.907875 265 2826ft 177kts
20-Feb-19 15:57 34.221054 -118.958832 265 2311ft 126kts
20-Feb-19 15:58 34.218559 -118.997993 265 1634ft 114kts
20-Feb-19 15:59 34.216091 -119.035973 266 969ft 113kts
20-Feb-19 16:00 34.213447 -119.072875 270 253ft 109kts
20-Feb-19 16:01 34.213748 -119.092751 267 81ft 12kts
20-Feb-19 16:02 34.212344 -119.095731 180 80ft 7kts
20-Feb-19 16:03 34.211017 -119.094367 97 79ft 6kts
20-Feb-19 16:04 34.210999 -119.091954 90 79ft 10kts
20-Feb-19 16:05 34.211052 -119.089408 99 79ft 12kts
20-Feb-19 16:06 34.210764 -119.086661 89 81ft 0kts
20-Feb-19 16:07 34.210764 -119.086661 89 81ft 0kts

Navigation Log

Ident Type
Flight plan parsing failed, navigation log unavailable